sensor_id;sensor_type;location;lat;lon;timestamp;pressure;altitude;pressure_sealevel;temperature;humidity
19128;BME280;9696;53.686;10.094;2022-08-24T00:00:44;101739.00;;;17.31;66.85
19128;BME280;9696;53.686;10.094;2022-08-24T00:03:14;101732.66;;;17.24;65.84
19128;BME280;9696;53.686;10.094;2022-08-24T00:05:44;101733.72;;;17.14;66.28
19128;BME280;9696;53.686;10.094;2022-08-24T00:08:14;101728.53;;;17.12;67.34
19128;BME280;9696;53.686;10.094;2022-08-24T00:10:44;101723.06;;;16.96;67.42
19128;BME280;9696;53.686;10.094;2022-08-24T00:13:13;101730.72;;;16.99;67.29
19128;BME280;9696;53.686;10.094;2022-08-24T00:15:43;101727.09;;;17.00;67.69
19128;BME280;9696;53.686;10.094;2022-08-24T00:18:14;101733.47;;;17.07;67.57
19128;BME280;9696;53.686;10.094;2022-08-24T00:20:43;101725.69;;;17.06;67.61
19128;BME280;9696;53.686;10.094;2022-08-24T00:23:12;101734.91;;;17.19;67.30
19128;BME280;9696;53.686;10.094;2022-08-24T00:25:42;101729.69;;;17.27;66.18
19128;BME280;9696;53.686;10.094;2022-08-24T00:28:11;101730.53;;;17.28;66.73
19128;BME280;9696;53.686;10.094;2022-08-24T00:30:41;101723.41;;;17.28;66.36
19128;BME280;9696;53.686;10.094;2022-08-24T00:33:10;101722.19;;;17.23;66.95
19128;BME280;9696;53.686;10.094;2022-08-24T00:35:40;101726.97;;;17.19;67.24
19128;BME280;9696;53.686;10.094;2022-08-24T00:38:10;101723.09;;;17.31;66.50
19128;BME280;9696;53.686;10.094;2022-08-24T00:40:42;101724.38;;;17.27;66.47
19128;BME280;9696;53.686;10.094;2022-08-24T00:43:13;101718.09;;;17.28;66.72
19128;BME280;9696;53.686;10.094;2022-08-24T00:45:48;101718.78;;;17.48;66.41
19128;BME280;9696;53.686;10.094;2022-08-24T00:48:22;101723.53;;;17.27;66.65
19128;BME280;9696;53.686;10.094;2022-08-24T00:50:57;101716.28;;;17.29;67.03
19128;BME280;9696;53.686;10.094;2022-08-24T00:53:30;101711.56;;;17.40;66.33
19128;BME280;9696;53.686;10.094;2022-08-24T00:56:05;101708.41;;;17.37;67.10
19128;BME280;9696;53.686;10.094;2022-08-24T00:58:40;101720.69;;;17.38;67.08
19128;BME280;9696;53.686;10.094;2022-08-24T01:01:10;101728.41;;;17.31;67.66
19128;BME280;9696;53.686;10.094;2022-08-24T01:03:42;101729.53;;;17.29;67.19
19128;BME280;9696;53.686;10.094;2022-08-24T01:06:14;101730.91;;;17.33;68.42
19128;BME280;9696;53.686;10.094;2022-08-24T01:08:43;101733.31;;;17.26;68.60
19128;BME280;9696;53.686;10.094;2022-08-24T01:11:22;101731.28;;;17.38;68.06
19128;BME280;9696;53.686;10.094;2022-08-24T01:13:52;101738.19;;;17.66;67.45
19128;BME280;9696;53.686;10.094;2022-08-24T01:16:22;101728.94;;;17.53;67.97
19128;BME280;9696;53.686;10.094;2022-08-24T01:19:12;101734.47;;;17.41;68.72
19128;BME280;9696;53.686;10.094;2022-08-24T01:21:53;101731.97;;;17.40;68.02
19128;BME280;9696;53.686;10.094;2022-08-24T01:24:27;101736.88;;;17.35;68.31
19128;BME280;9696;53.686;10.094;2022-08-24T01:26:56;101734.53;;;17.32;68.82
19128;BME280;9696;53.686;10.094;2022-08-24T01:29:28;101734.84;;;17.29;68.99
19128;BME280;9696;53.686;10.094;2022-08-24T01:31:58;101736.97;;;17.25;69.04
19128;BME280;9696;53.686;10.094;2022-08-24T01:34:28;101736.28;;;17.23;69.92
19128;BME280;9696;53.686;10.094;2022-08-24T01:36:58;101733.78;;;17.22;69.46
19128;BME280;9696;53.686;10.094;2022-08-24T01:39:30;101736.28;;;17.23;70.02
19128;BME280;9696;53.686;10.094;2022-08-24T01:42:01;101739.03;;;17.14;70.63
19128;BME280;9696;53.686;10.094;2022-08-24T01:44:33;101740.66;;;17.15;70.56
19128;BME280;9696;53.686;10.094;2022-08-24T01:47:04;101737.78;;;17.08;70.97
19128;BME280;9696;53.686;10.094;2022-08-24T01:49:37;101743.97;;;16.99;70.49
19128;BME280;9696;53.686;10.094;2022-08-24T01:52:09;101742.34;;;16.98;70.68
19128;BME280;9696;53.686;10.094;2022-08-24T01:54:40;101740.13;;;16.93;71.57
19128;BME280;9696;53.686;10.094;2022-08-24T01:57:12;101742.38;;;16.88;71.10
19128;BME280;9696;53.686;10.094;2022-08-24T01:59:44;101743.13;;;16.81;72.03
19128;BME280;9696;53.686;10.094;2022-08-24T02:02:17;101746.91;;;16.78;72.07
19128;BME280;9696;53.686;10.094;2022-08-24T02:04:46;101752.31;;;16.86;72.23
19128;BME280;9696;53.686;10.094;2022-08-24T02:07:16;101754.25;;;16.84;72.61
19128;BME280;9696;53.686;10.094;2022-08-24T02:09:47;101755.13;;;16.75;72.69
19128;BME280;9696;53.686;10.094;2022-08-24T02:12:17;101754.59;;;16.72;72.87
19128;BME280;9696;53.686;10.094;2022-08-24T02:14:47;101762.19;;;16.67;73.06
19128;BME280;9696;53.686;10.094;2022-08-24T02:17:16;101760.09;;;16.61;72.81
19128;BME280;9696;53.686;10.094;2022-08-24T02:19:46;101755.09;;;16.58;72.71
19128;BME280;9696;53.686;10.094;2022-08-24T02:22:15;101750.06;;;16.55;72.94
19128;BME280;9696;53.686;10.094;2022-08-24T02:24:46;101750.81;;;16.47;73.23
19128;BME280;9696;53.686;10.094;2022-08-24T02:27:15;101751.16;;;16.52;74.02
19128;BME280;9696;53.686;10.094;2022-08-24T02:29:45;101746.31;;;16.47;74.09
19128;BME280;9696;53.686;10.094;2022-08-24T02:32:14;101753.72;;;16.44;74.23
19128;BME280;9696;53.686;10.094;2022-08-24T02:34:43;101758.47;;;16.40;74.42
19128;BME280;9696;53.686;10.094;2022-08-24T02:37:12;101758.59;;;16.48;73.93
19128;BME280;9696;53.686;10.094;2022-08-24T02:39:41;101760.44;;;16.38;74.49
19128;BME280;9696;53.686;10.094;2022-08-24T02:42:16;101759.44;;;16.39;74.57
19128;BME280;9696;53.686;10.094;2022-08-24T02:44:45;101753.03;;;16.42;74.44
19128;BME280;9696;53.686;10.094;2022-08-24T02:47:16;101756.72;;;16.31;74.63
19128;BME280;9696;53.686;10.094;2022-08-24T02:49:45;101755.72;;;16.32;75.69
19128;BME280;9696;53.686;10.094;2022-08-24T02:52:15;101755.88;;;16.31;75.19
19128;BME280;9696;53.686;10.094;2022-08-24T02:54:44;101759.19;;;16.33;75.55
19128;BME280;9696;53.686;10.094;2022-08-24T02:57:15;101756.97;;;16.28;75.71
19128;BME280;9696;53.686;10.094;2022-08-24T02:59:44;101755.34;;;16.27;75.65
19128;BME280;9696;53.686;10.094;2022-08-24T03:02:13;101759.38;;;16.31;75.68
19128;BME280;9696;53.686;10.094;2022-08-24T03:04:43;101754.63;;;16.25;75.51
19128;BME280;9696;53.686;10.094;2022-08-24T03:07:16;101756.88;;;16.20;75.83
19128;BME280;9696;53.686;10.094;2022-08-24T03:09:46;101761.63;;;16.17;76.48
19128;BME280;9696;53.686;10.094;2022-08-24T03:12:16;101766.63;;;16.20;76.97
19128;BME280;9696;53.686;10.094;2022-08-24T03:14:46;101760.09;;;16.14;76.48
19128;BME280;9696;53.686;10.094;2022-08-24T03:17:15;101770.81;;;16.13;76.64
19128;BME280;9696;53.686;10.094;2022-08-24T03:19:46;101771.94;;;16.10;76.80
19128;BME280;9696;53.686;10.094;2022-08-24T03:22:15;101771.94;;;16.10;76.82
19128;BME280;9696;53.686;10.094;2022-08-24T03:24:45;101769.72;;;16.15;77.61
19128;BME280;9696;53.686;10.094;2022-08-24T03:27:16;101767.38;;;16.02;76.68
19128;BME280;9696;53.686;10.094;2022-08-24T03:29:47;101772.25;;;16.07;77.90
19128;BME280;9696;53.686;10.094;2022-08-24T03:32:17;101775.44;;;16.01;77.96
19128;BME280;9696;53.686;10.094;2022-08-24T03:34:46;101769.91;;;15.85;78.51
19128;BME280;9696;53.686;10.094;2022-08-24T03:37:15;101774.94;;;15.78;78.99
19128;BME280;9696;53.686;10.094;2022-08-24T03:39:44;101778.41;;;15.79;78.02
19128;BME280;9696;53.686;10.094;2022-08-24T03:42:16;101786.22;;;15.71;78.41
19128;BME280;9696;53.686;10.094;2022-08-24T03:44:45;101786.63;;;15.66;79.34
19128;BME280;9696;53.686;10.094;2022-08-24T03:47:15;101784.13;;;15.74;78.70
19128;BME280;9696;53.686;10.094;2022-08-24T03:49:45;101777.44;;;15.80;79.18
19128;BME280;9696;53.686;10.094;2022-08-24T03:52:14;101774.38;;;15.75;79.06
19128;BME280;9696;53.686;10.094;2022-08-24T03:54:44;101782.47;;;15.64;78.93
19128;BME280;9696;53.686;10.094;2022-08-24T03:57:15;101785.81;;;15.56;79.90
19128;BME280;9696;53.686;10.094;2022-08-24T03:59:44;101778.00;;;15.54;79.78
19128;BME280;9696;53.686;10.094;2022-08-24T04:02:14;101780.78;;;15.53;80.48
19128;BME280;9696;53.686;10.094;2022-08-24T04:04:43;101782.03;;;15.59;80.58
19128;BME280;9696;53.686;10.094;2022-08-24T04:07:14;101784.97;;;15.55;80.43
19128;BME280;9696;53.686;10.094;2022-08-24T04:09:44;101788.69;;;15.53;80.73
19128;BME280;9696;53.686;10.094;2022-08-24T04:12:13;101785.09;;;15.54;80.97
19128;BME280;9696;53.686;10.094;2022-08-24T04:14:43;101790.53;;;15.52;80.86
19128;BME280;9696;53.686;10.094;2022-08-24T04:17:16;101790.66;;;15.51;81.05
19128;BME280;9696;53.686;10.094;2022-08-24T04:19:47;101795.81;;;15.52;80.39
19128;BME280;9696;53.686;10.094;2022-08-24T04:22:35;101796.91;;;15.50;80.67
19128;BME280;9696;53.686;10.094;2022-08-24T04:25:05;101792.19;;;15.53;81.74
19128;BME280;9696;53.686;10.094;2022-08-24T04:27:38;101791.88;;;15.47;81.77
19128;BME280;9696;53.686;10.094;2022-08-24T04:30:11;101795.66;;;15.44;81.38
19128;BME280;9696;53.686;10.094;2022-08-24T04:33:01;101794.84;;;15.53;81.82
19128;BME280;9696;53.686;10.094;2022-08-24T04:35:35;101794.00;;;15.53;82.02
19128;BME280;9696;53.686;10.094;2022-08-24T04:38:05;101788.28;;;15.57;81.52
19128;BME280;9696;53.686;10.094;2022-08-24T04:40:37;101788.59;;;15.64;81.57
19128;BME280;9696;53.686;10.094;2022-08-24T04:43:09;101783.13;;;15.66;81.97
19128;BME280;9696;53.686;10.094;2022-08-24T04:45:41;101785.25;;;15.72;81.13
19128;BME280;9696;53.686;10.094;2022-08-24T04:48:11;101785.78;;;15.75;80.71
19128;BME280;9696;53.686;10.094;2022-08-24T04:50:42;101778.53;;;15.77;82.19
19128;BME280;9696;53.686;10.094;2022-08-24T04:53:12;101776.72;;;15.78;82.37
19128;BME280;9696;53.686;10.094;2022-08-24T04:55:48;101780.22;;;15.88;81.99
19128;BME280;9696;53.686;10.094;2022-08-24T04:58:18;101784.09;;;15.93;82.22
19128;BME280;9696;53.686;10.094;2022-08-24T05:00:49;101786.63;;;15.95;81.61
19128;BME280;9696;53.686;10.094;2022-08-24T05:03:19;101782.00;;;16.07;82.31
19128;BME280;9696;53.686;10.094;2022-08-24T05:05:50;101788.50;;;16.12;82.66
19128;BME280;9696;53.686;10.094;2022-08-24T05:08:20;101793.84;;;16.02;83.36
19128;BME280;9696;53.686;10.094;2022-08-24T05:10:50;101798.00;;;16.15;82.15
19128;BME280;9696;53.686;10.094;2022-08-24T05:13:20;101803.00;;;16.27;82.08
19128;BME280;9696;53.686;10.094;2022-08-24T05:15:50;101800.31;;;16.37;82.58
19128;BME280;9696;53.686;10.094;2022-08-24T05:18:20;101803.94;;;16.36;82.71
19128;BME280;9696;53.686;10.094;2022-08-24T05:20:49;101806.81;;;16.52;82.18
19128;BME280;9696;53.686;10.094;2022-08-24T05:23:18;101810.59;;;16.59;82.75
19128;BME280;9696;53.686;10.094;2022-08-24T05:25:48;101809.31;;;16.63;82.31
19128;BME280;9696;53.686;10.094;2022-08-24T05:28:17;101819.03;;;16.72;82.14
19128;BME280;9696;53.686;10.094;2022-08-24T05:30:47;101827.63;;;16.84;82.77
19128;BME280;9696;53.686;10.094;2022-08-24T05:33:19;101826.06;;;16.91;82.40
19128;BME280;9696;53.686;10.094;2022-08-24T05:35:48;101823.81;;;16.96;83.09
19128;BME280;9696;53.686;10.094;2022-08-24T05:38:17;101827.72;;;17.19;82.48
19128;BME280;9696;53.686;10.094;2022-08-24T05:40:46;101828.97;;;17.25;81.66
19128;BME280;9696;53.686;10.094;2022-08-24T05:43:16;101830.25;;;17.38;81.75
19128;BME280;9696;53.686;10.094;2022-08-24T05:45:45;101841.84;;;17.82;80.23
19128;BME280;9696;53.686;10.094;2022-08-24T05:48:15;101836.78;;;18.32;78.16
19128;BME280;9696;53.686;10.094;2022-08-24T05:51:09;101833.94;;;18.86;76.14
19128;BME280;9696;53.686;10.094;2022-08-24T05:53:49;101835.94;;;18.83;75.76
19128;BME280;9696;53.686;10.094;2022-08-24T05:56:20;101831.19;;;19.03;75.41
19128;BME280;9696;53.686;10.094;2022-08-24T05:58:50;101832.44;;;18.83;76.68
19128;BME280;9696;53.686;10.094;2022-08-24T06:01:22;101837.59;;;18.93;76.01
19128;BME280;9696;53.686;10.094;2022-08-24T06:03:55;101838.44;;;19.35;75.26
19128;BME280;9696;53.686;10.094;2022-08-24T06:06:26;101845.16;;;19.05;76.33
19128;BME280;9696;53.686;10.094;2022-08-24T06:08:57;101837.88;;;19.15;75.51
19128;BME280;9696;53.686;10.094;2022-08-24T06:11:28;101837.19;;;19.71;73.93
19128;BME280;9696;53.686;10.094;2022-08-24T06:14:01;101838.03;;;19.96;72.67
19128;BME280;9696;53.686;10.094;2022-08-24T06:16:39;101842.84;;;19.68;73.61
19128;BME280;9696;53.686;10.094;2022-08-24T06:19:11;101846.19;;;19.70;74.04
19128;BME280;9696;53.686;10.094;2022-08-24T06:21:42;101841.19;;;20.16;72.10
19128;BME280;9696;53.686;10.094;2022-08-24T06:24:14;101833.03;;;20.17;72.56
19128;BME280;9696;53.686;10.094;2022-08-24T06:26:45;101847.22;;;20.42;71.02
19128;BME280;9696;53.686;10.094;2022-08-24T06:29:33;101843.69;;;20.09;73.04
19128;BME280;9696;53.686;10.094;2022-08-24T06:32:22;101842.22;;;19.91;72.59
19128;BME280;9696;53.686;10.094;2022-08-24T06:34:56;101843.84;;;20.16;72.21
19128;BME280;9696;53.686;10.094;2022-08-24T06:37:27;101851.00;;;19.99;73.28
19128;BME280;9696;53.686;10.094;2022-08-24T06:39:57;101851.84;;;20.24;71.69
19128;BME280;9696;53.686;10.094;2022-08-24T06:42:27;101847.69;;;20.05;72.79
19128;BME280;9696;53.686;10.094;2022-08-24T06:44:59;101842.03;;;20.24;72.13
19128;BME280;9696;53.686;10.094;2022-08-24T06:47:28;101846.19;;;20.35;72.11
19128;BME280;9696;53.686;10.094;2022-08-24T06:50:01;101847.84;;;20.28;71.77
19128;BME280;9696;53.686;10.094;2022-08-24T06:52:32;101847.44;;;20.80;71.06
19128;BME280;9696;53.686;10.094;2022-08-24T06:55:02;101859.28;;;20.77;70.31
19128;BME280;9696;53.686;10.094;2022-08-24T06:57:33;101844.09;;;21.25;69.26
19128;BME280;9696;53.686;10.094;2022-08-24T07:00:03;101849.97;;;21.20;68.91
19128;BME280;9696;53.686;10.094;2022-08-24T07:02:33;101860.28;;;21.23;68.55
19128;BME280;9696;53.686;10.094;2022-08-24T07:05:03;101857.78;;;21.22;69.16
19128;BME280;9696;53.686;10.094;2022-08-24T07:07:56;101855.38;;;21.35;68.68
19128;BME280;9696;53.686;10.094;2022-08-24T07:10:27;101852.84;;;21.41;69.29
19128;BME280;9696;53.686;10.094;2022-08-24T07:12:58;101852.97;;;21.48;67.69
19128;BME280;9696;53.686;10.094;2022-08-24T07:15:27;101865.03;;;21.44;67.73
19128;BME280;9696;53.686;10.094;2022-08-24T07:18:13;101866.28;;;21.79;66.99
19128;BME280;9696;53.686;10.094;2022-08-24T07:20:48;101869.47;;;21.51;68.37
19128;BME280;9696;53.686;10.094;2022-08-24T07:23:22;101873.47;;;22.24;65.80
19128;BME280;9696;53.686;10.094;2022-08-24T07:26:11;101864.16;;;21.97;67.19
19128;BME280;9696;53.686;10.094;2022-08-24T07:28:50;101866.69;;;22.36;65.96
19128;BME280;9696;53.686;10.094;2022-08-24T07:31:20;101859.75;;;22.41;65.55
19128;BME280;9696;53.686;10.094;2022-08-24T07:34:12;101866.25;;;22.24;66.51
19128;BME280;9696;53.686;10.094;2022-08-24T07:36:42;101865.38;;;22.32;66.44
19128;BME280;9696;53.686;10.094;2022-08-24T07:39:14;101869.16;;;22.52;65.99
19128;BME280;9696;53.686;10.094;2022-08-24T07:41:44;101872.97;;;22.58;65.48
19128;BME280;9696;53.686;10.094;2022-08-24T07:44:33;101874.84;;;22.72;64.31
19128;BME280;9696;53.686;10.094;2022-08-24T07:47:03;101871.19;;;21.98;66.20
19128;BME280;9696;53.686;10.094;2022-08-24T07:49:52;101867.25;;;22.46;65.50
19128;BME280;9696;53.686;10.094;2022-08-24T07:52:21;101873.22;;;22.33;66.27
19128;BME280;9696;53.686;10.094;2022-08-24T07:54:52;101875.59;;;22.95;63.33
19128;BME280;9696;53.686;10.094;2022-08-24T07:57:21;101866.81;;;23.01;62.87
19128;BME280;9696;53.686;10.094;2022-08-24T07:59:50;101866.69;;;22.65;64.70
19128;BME280;9696;53.686;10.094;2022-08-24T08:02:20;101867.91;;;23.21;62.56
19128;BME280;9696;53.686;10.094;2022-08-24T08:04:54;101865.53;;;23.62;61.76
19128;BME280;9696;53.686;10.094;2022-08-24T08:07:24;101865.53;;;23.62;60.81
19128;BME280;9696;53.686;10.094;2022-08-24T08:09:55;101869.56;;;23.08;61.35
19128;BME280;9696;53.686;10.094;2022-08-24T08:12:24;101877.31;;;23.68;60.18
19128;BME280;9696;53.686;10.094;2022-08-24T08:14:55;101881.25;;;23.36;60.38
19128;BME280;9696;53.686;10.094;2022-08-24T08:17:25;101875.84;;;23.65;59.36
19128;BME280;9696;53.686;10.094;2022-08-24T08:19:54;101884.41;;;23.25;61.82
19128;BME280;9696;53.686;10.094;2022-08-24T08:22:24;101890.34;;;23.92;58.85
19128;BME280;9696;53.686;10.094;2022-08-24T08:25:45;101887.09;;;23.75;59.49
19128;BME280;9696;53.686;10.094;2022-08-24T08:28:20;101882.63;;;23.61;59.96
19128;BME280;9696;53.686;10.094;2022-08-24T08:31:03;101879.50;;;24.21;59.07
19128;BME280;9696;53.686;10.094;2022-08-24T08:33:33;101877.69;;;24.07;58.03
19128;BME280;9696;53.686;10.094;2022-08-24T08:36:06;101875.94;;;23.93;58.93
19128;BME280;9696;53.686;10.094;2022-08-24T08:38:41;101887.09;;;24.46;57.55
19128;BME280;9696;53.686;10.094;2022-08-24T08:41:35;101876.34;;;24.73;56.41
19128;BME280;9696;53.686;10.094;2022-08-24T08:44:28;101874.88;;;24.99;55.61
19128;BME280;9696;53.686;10.094;2022-08-24T08:47:10;101876.75;;;25.05;54.85
19128;BME280;9696;53.686;10.094;2022-08-24T08:49:58;101877.84;;;24.82;56.00
19128;BME280;9696;53.686;10.094;2022-08-24T08:55:35;101882.56;;;24.46;56.64
19128;BME280;9696;53.686;10.094;2022-08-24T08:58:30;101868.16;;;25.16;55.08
19128;BME280;9696;53.686;10.094;2022-08-24T09:01:14;101870.16;;;25.01;54.87
19128;BME280;9696;53.686;10.094;2022-08-24T09:04:08;101868.22;;;25.36;54.68
19128;BME280;9696;53.686;10.094;2022-08-24T09:07:17;101864.84;;;24.79;55.46
19128;BME280;9696;53.686;10.094;2022-08-24T09:10:16;101874.53;;;25.08;54.76
19128;BME280;9696;53.686;10.094;2022-08-24T09:13:01;101868.44;;;24.65;56.03
19128;BME280;9696;53.686;10.094;2022-08-24T09:18:38;101880.72;;;24.19;57.70
19128;BME280;9696;53.686;10.094;2022-08-24T09:21:46;101862.97;;;25.88;51.75
19128;BME280;9696;53.686;10.094;2022-08-24T09:24:31;101862.53;;;25.65;53.85
19128;BME280;9696;53.686;10.094;2022-08-24T09:27:16;101860.69;;;25.11;54.57
19128;BME280;9696;53.686;10.094;2022-08-24T09:30:01;101853.69;;;26.23;51.60
19128;BME280;9696;53.686;10.094;2022-08-24T09:32:40;101854.31;;;25.19;52.99
19128;BME280;9696;53.686;10.094;2022-08-24T09:35:21;101861.59;;;25.38;52.98
19128;BME280;9696;53.686;10.094;2022-08-24T09:37:58;101850.56;;;25.87;51.70
19128;BME280;9696;53.686;10.094;2022-08-24T09:40:50;101856.34;;;26.04;52.30
19128;BME280;9696;53.686;10.094;2022-08-24T09:47:11;101848.25;;;26.56;49.86
19128;BME280;9696;53.686;10.094;2022-08-24T09:53:20;101849.56;;;26.34;49.62
19128;BME280;9696;53.686;10.094;2022-08-24T09:56:13;101853.00;;;26.74;49.40
19128;BME280;9696;53.686;10.094;2022-08-24T09:58:58;101854.91;;;25.82;52.21
19128;BME280;9696;53.686;10.094;2022-08-24T10:01:35;101845.59;;;26.37;50.60
19128;BME280;9696;53.686;10.094;2022-08-24T10:04:17;101847.25;;;25.98;51.64
19128;BME280;9696;53.686;10.094;2022-08-24T10:07:00;101839.84;;;27.04;47.89
19128;BME280;9696;53.686;10.094;2022-08-24T10:10:01;101843.94;;;26.09;50.18
19128;BME280;9696;53.686;10.094;2022-08-24T10:12:40;101846.00;;;26.40;49.12
19128;BME280;9696;53.686;10.094;2022-08-24T10:15:26;101829.41;;;26.69;47.96
19128;BME280;9696;53.686;10.094;2022-08-24T10:18:10;101835.66;;;25.85;48.54
19128;BME280;9696;53.686;10.094;2022-08-24T10:20:56;101835.38;;;26.78;45.43
19128;BME280;9696;53.686;10.094;2022-08-24T10:23:44;101833.44;;;27.74;44.18
19128;BME280;9696;53.686;10.094;2022-08-24T10:26:22;101829.50;;;28.01;44.77
19128;BME280;9696;53.686;10.094;2022-08-24T10:29:11;101825.78;;;27.02;46.70
19128;BME280;9696;53.686;10.094;2022-08-24T10:31:56;101832.41;;;27.06;45.85
19128;BME280;9696;53.686;10.094;2022-08-24T10:34:41;101831.72;;;26.53;46.47
19128;BME280;9696;53.686;10.094;2022-08-24T10:37:32;101828.81;;;27.56;44.26
19128;BME280;9696;53.686;10.094;2022-08-24T10:40:26;101823.28;;;27.45;44.77
19128;BME280;9696;53.686;10.094;2022-08-24T10:43:24;101828.84;;;26.02;48.02
19128;BME280;9696;53.686;10.094;2022-08-24T10:46:47;101823.88;;;27.09;45.99
19128;BME280;9696;53.686;10.094;2022-08-24T10:49:43;101826.63;;;27.72;43.91
19128;BME280;9696;53.686;10.094;2022-08-24T10:55:32;101819.53;;;27.52;43.23
19128;BME280;9696;53.686;10.094;2022-08-24T10:58:25;101818.88;;;27.82;43.98
19128;BME280;9696;53.686;10.094;2022-08-24T11:01:24;101817.06;;;28.00;42.59
19128;BME280;9696;53.686;10.094;2022-08-24T11:03:58;101810.38;;;28.71;40.55
19128;BME280;9696;53.686;10.094;2022-08-24T11:06:31;101819.38;;;28.22;39.73
19128;BME280;9696;53.686;10.094;2022-08-24T11:09:05;101820.19;;;27.97;41.04
19128;BME280;9696;53.686;10.094;2022-08-24T11:11:37;101822.09;;;27.65;42.39
19128;BME280;9696;53.686;10.094;2022-08-24T11:14:22;101813.34;;;28.81;40.87
19128;BME280;9696;53.686;10.094;2022-08-24T11:16:52;101820.47;;;27.89;43.80
19128;BME280;9696;53.686;10.094;2022-08-24T11:19:31;101807.94;;;28.63;40.34
19128;BME280;9696;53.686;10.094;2022-08-24T11:22:02;101804.94;;;29.07;39.84
19128;BME280;9696;53.686;10.094;2022-08-24T11:24:41;101804.16;;;29.18;39.94
19128;BME280;9696;53.686;10.094;2022-08-24T11:27:25;101802.28;;;28.71;40.26
19128;BME280;9696;53.686;10.094;2022-08-24T11:30:00;101807.16;;;29.28;38.29
19128;BME280;9696;53.686;10.094;2022-08-24T11:32:36;101808.47;;;29.08;37.57
19128;BME280;9696;53.686;10.094;2022-08-24T11:35:13;101813.00;;;28.77;40.02
19128;BME280;9696;53.686;10.094;2022-08-24T11:37:44;101806.00;;;29.36;39.04
19128;BME280;9696;53.686;10.094;2022-08-24T11:40:15;101799.44;;;29.43;38.60
19128;BME280;9696;53.686;10.094;2022-08-24T11:45:48;101797.75;;;28.83;39.71
19128;BME280;9696;53.686;10.094;2022-08-24T11:48:32;101803.63;;;29.81;37.92
19128;BME280;9696;53.686;10.094;2022-08-24T11:51:07;101802.66;;;29.04;38.74
19128;BME280;9696;53.686;10.094;2022-08-24T11:53:47;101807.81;;;29.54;38.20
19128;BME280;9696;53.686;10.094;2022-08-24T11:56:23;101812.38;;;28.93;38.58
19128;BME280;9696;53.686;10.094;2022-08-24T11:59:00;101813.50;;;28.68;39.38
19128;BME280;9696;53.686;10.094;2022-08-24T12:01:37;101801.47;;;29.00;38.17
19128;BME280;9696;53.686;10.094;2022-08-24T12:04:20;101804.63;;;29.45;37.01
19128;BME280;9696;53.686;10.094;2022-08-24T12:06:59;101804.28;;;30.06;35.14
19128;BME280;9696;53.686;10.094;2022-08-24T12:09:50;101811.50;;;29.71;34.23
19128;BME280;9696;53.686;10.094;2022-08-24T12:12:30;101808.25;;;28.54;37.84
19128;BME280;9696;53.686;10.094;2022-08-24T12:15:07;101804.78;;;29.62;35.28
19128;BME280;9696;53.686;10.094;2022-08-24T12:17:42;101798.50;;;30.49;33.48
19128;BME280;9696;53.686;10.094;2022-08-24T12:20:22;101796.06;;;29.00;35.69
19128;BME280;9696;53.686;10.094;2022-08-24T12:22:56;101796.97;;;29.42;36.43
19128;BME280;9696;53.686;10.094;2022-08-24T12:25:30;101797.63;;;28.78;36.13
19128;BME280;9696;53.686;10.094;2022-08-24T12:28:23;101793.56;;;28.69;35.31
19128;BME280;9696;53.686;10.094;2022-08-24T12:30:58;101800.69;;;29.82;31.23
19128;BME280;9696;53.686;10.094;2022-08-24T12:33:31;101795.72;;;30.72;30.53
19128;BME280;9696;53.686;10.094;2022-08-24T12:36:14;101793.78;;;31.24;30.67
19128;BME280;9696;53.686;10.094;2022-08-24T12:38:48;101797.09;;;30.86;30.01
19128;BME280;9696;53.686;10.094;2022-08-24T12:41:24;101784.81;;;30.32;31.90
19128;BME280;9696;53.686;10.094;2022-08-24T12:43:58;101796.59;;;30.15;32.23
19128;BME280;9696;53.686;10.094;2022-08-24T12:46:31;101804.81;;;29.73;31.80
19128;BME280;9696;53.686;10.094;2022-08-24T12:49:06;101800.75;;;28.93;31.97
19128;BME280;9696;53.686;10.094;2022-08-24T12:51:52;101790.38;;;30.14;31.46
19128;BME280;9696;53.686;10.094;2022-08-24T12:54:36;101786.19;;;29.54;32.67
19128;BME280;9696;53.686;10.094;2022-08-24T12:57:28;101790.25;;;30.21;31.68
19128;BME280;9696;53.686;10.094;2022-08-24T13:00:11;101793.69;;;29.22;33.06
19128;BME280;9696;53.686;10.094;2022-08-24T13:02:43;101791.91;;;30.33;31.14
19128;BME280;9696;53.686;10.094;2022-08-24T13:05:17;101789.91;;;29.94;31.99
19128;BME280;9696;53.686;10.094;2022-08-24T13:07:49;101791.31;;;30.08;30.66
19128;BME280;9696;53.686;10.094;2022-08-24T13:10:39;101792.44;;;29.77;31.19
19128;BME280;9696;53.686;10.094;2022-08-24T13:13:22;101794.75;;;29.51;32.76
19128;BME280;9696;53.686;10.094;2022-08-24T13:16:09;101790.09;;;31.02;30.12
19128;BME280;9696;53.686;10.094;2022-08-24T13:21:51;101802.09;;;29.73;30.62
19128;BME280;9696;53.686;10.094;2022-08-24T13:24:54;101791.75;;;29.70;31.47
19128;BME280;9696;53.686;10.094;2022-08-24T13:31:04;101793.22;;;30.82;31.42
19128;BME280;9696;53.686;10.094;2022-08-24T13:33:41;101786.59;;;30.04;31.98
19128;BME280;9696;53.686;10.094;2022-08-24T13:36:39;101779.81;;;29.60;32.82
19128;BME280;9696;53.686;10.094;2022-08-24T13:39:22;101775.31;;;30.30;31.55
19128;BME280;9696;53.686;10.094;2022-08-24T13:42:08;101789.66;;;28.83;33.56
19128;BME280;9696;53.686;10.094;2022-08-24T13:47:52;101773.38;;;30.30;32.00
19128;BME280;9696;53.686;10.094;2022-08-24T13:50:41;101765.13;;;31.00;31.44
19128;BME280;9696;53.686;10.094;2022-08-24T13:56:43;101776.16;;;29.13;34.30
19128;BME280;9696;53.686;10.094;2022-08-24T13:59:18;101774.69;;;30.39;31.38
19128;BME280;9696;53.686;10.094;2022-08-24T14:02:05;101772.31;;;30.55;31.15
19128;BME280;9696;53.686;10.094;2022-08-24T14:04:50;101776.13;;;30.19;31.66
19128;BME280;9696;53.686;10.094;2022-08-24T14:07:25;101775.19;;;30.25;32.17